WetterOnline ( http://www.wetteronline.de )

Wetter aktuell Helgoland

Aktuelles Wetter: Helgoland/Düne (8m)

6-stündlich | Neueste Meldungen
Ortszeit Temperatur Wetter
Sa, 20.10. 8:00 13.0° C bedeckt
Sa, 20.10. 2:00 12.3° C bewölkt
Fr, 19.10. 20:00 12.2° C bedeckt
Fr, 19.10. 14:00 12.0° C bedeckt
Fr, 19.10. 8:00 11.5° C bedeckt
Fr, 19.10. 2:00 11.9° C wolkig
Do, 18.10. 20:00 12.6° C wolkig
Do, 18.10. 14:00 13.6° C fast wolkenlos
Ortszeit Temperatur Wetter
Sa, 20.10. 12:30 14.6° C wolkenlos
Sa, 20.10. 12:20 14.6° C wolkenlos
Sa, 20.10. 12:10 14.7° C fast wolkenlos
Sa, 20.10. 12:00 14.6° C leicht bewölkt
Sa, 20.10. 11:50 14.6° C leicht bewölkt
Sa, 20.10. 11:40 14.0° C leicht bewölkt
Sa, 20.10. 11:30 14.3° C leicht bewölkt
Sa, 20.10. 11:00 14.2° C leicht bewölkt
Sa, 20.10. 10:30 13.8° C wolkig
Sa, 20.10. 10:00 14.2° C Sprühregen
Sa, 20.10. 9:30 14.1° C bedeckt
Ortszeit Relative Feuchte Sichtweite
Sa, 20.10. 8:00 80% 30 km
Sa, 20.10. 2:00 72% 40 km
Fr, 19.10. 20:00 56% 60 km
Fr, 19.10. 14:00 67% 40 km
Fr, 19.10. 8:00 71% 40 km
Fr, 19.10. 2:00 60% 45 km
Do, 18.10. 20:00 66% 40 km
Do, 18.10. 14:00 72% 35 km
Ortszeit Relative Feuchte Sichtweite
Sa, 20.10. 12:30 72% 50 km
Sa, 20.10. 12:20 72% -
Sa, 20.10. 12:10 72% -
Sa, 20.10. 12:00 73% 35 km
Sa, 20.10. 11:50 73% -
Sa, 20.10. 11:40 73% -
Sa, 20.10. 11:30 70% 45 km
Sa, 20.10. 11:00 73% 40 km
Sa, 20.10. 10:30 76% 40 km
Sa, 20.10. 10:00 78% 35 km
Sa, 20.10. 9:30 77% 35 km
Ortszeit Niederschlagsmenge Niederschlagsart
Sa, 20.10. 8:00 0.1 l/m2 in 12 Std. Regen
Sa, 20.10. 2:00 0.0 l/m2 in 6 Std. -
Fr, 19.10. 20:00 0.0 l/m2 in 12 Std. -
Fr, 19.10. 14:00 0.0 l/m2 in 6 Std. -
Fr, 19.10. 8:00 0.0 l/m2 in 12 Std. -
Fr, 19.10. 2:00 0.0 l/m2 in 6 Std. -
Do, 18.10. 20:00 0.0 l/m2 in 12 Std. -
Do, 18.10. 14:00 0.0 l/m2 in 6 Std. -
Ortszeit Niederschlagsmenge Niederschlagsart
Sa, 20.10. 12:30 0.0 l/m2 in 1 Std. -
Sa, 20.10. 12:20 keine Meldung -
Sa, 20.10. 12:10 keine Meldung -
Sa, 20.10. 12:00 0.0 l/m2 in 1 Std. -
Sa, 20.10. 11:50 keine Meldung -
Sa, 20.10. 11:40 keine Meldung -
Sa, 20.10. 11:30 0.0 l/m2 in 1 Std. -
Sa, 20.10. 11:00 0.1 l/m2 in 1 Std. Regen
Sa, 20.10. 10:30 0.1 l/m2 in 1 Std. Schneeregen
Sa, 20.10. 10:00 0.1 l/m2 in 1 Std. Regen
Sa, 20.10. 9:30 0.0 l/m2 in 1 Std. -
Ortszeit Stärke Spitze Richtung
km/h Bft. km/h Grad Sektor
Sa, 20.10. 8:00 25 4 50 270° W
Sa, 20.10. 2:00 26 4 33 230° SW
Fr, 19.10. 20:00 14 3 25 290° W
Fr, 19.10. 14:00 13 3 22 170° S
Fr, 19.10. 8:00 13 3 24 130° SO
Fr, 19.10. 2:00 13 3 33 20° N
Do, 18.10. 20:00 25 4 40 360° N
Do, 18.10. 14:00 29 5 47 20° N
Ortszeit Stärke Spitze Richtung
km/h Bft. km/h Grad Sektor
Sa, 20.10. 12:30 22 4 30 300° NW
Sa, 20.10. 12:20 22 4 - 300° NW
Sa, 20.10. 12:10 22 4 - 300° NW
Sa, 20.10. 12:00 22 4 29 310° NW
Sa, 20.10. 11:50 22 4 - 310° NW
Sa, 20.10. 11:40 22 4 - 310° NW
Sa, 20.10. 11:30 22 4 30 310° NW
Sa, 20.10. 11:00 24 4 31 310° NW
Sa, 20.10. 10:30 26 4 31 310° NW
Sa, 20.10. 10:00 26 4 31 290° W
Sa, 20.10. 9:30 24 4 31 300° NW
Ortszeit Untergrenze Bedeckung Gattung
total tief tief mittel hoch
Sa, 20.10. 8:00 900 m 8/8 8/8 - - -
Sa, 20.10. 2:00 1500 m 7/8 7/8 - - -
Fr, 19.10. 20:00 1230 m 8/8 8/8 - - -
Fr, 19.10. 14:00 840 m 8/8 8/8 - - -
Fr, 19.10. 8:00 750 m 8/8 8/8 - - -
Fr, 19.10. 2:00 1050 m 5/8 6/8 - - -
Do, 18.10. 20:00 870 m 5/8 6/8 - - -
Do, 18.10. 14:00 570 m 1/8 1/8 - - -
Ortszeit Bedeckungsgrad in Achtel und Wolkenuntergrenze
Sa, 20.10. 12:30 keine Wolken
Sa, 20.10. 12:20 keine Wolken
Sa, 20.10. 12:10 1(630m) 1(1380m)
Sa, 20.10. 12:00 2(630m) 4(1470m)
Sa, 20.10. 11:50 2(630m) 2(1200m) 4(1470m)
Sa, 20.10. 11:40 1(600m) 3(1230m) 4(1500m)
Sa, 20.10. 11:30 2(570m) 3(750m) 3(1230m)
Sa, 20.10. 11:00 1(630m) 2(1500m)
Sa, 20.10. 10:30 1(600m) 4(1290m) 6(1500m)
Sa, 20.10. 10:00 4(600m) 7(1380m) 8(1500m)
Sa, 20.10. 9:30 2(630m) 8(1500m) 8(7500m)
Ortszeit Luftdruck NN (hPa) Tendenz (hPa in 3 Std.)
Sa, 20.10. 8:00 1027 + 0,7
Sa, 20.10. 2:00 1027 0,0
Fr, 19.10. 20:00 1026 + 0,7
Fr, 19.10. 14:00 1027 - 0,3
Fr, 19.10. 8:00 1027 + 0,1
Fr, 19.10. 2:00 1027 - 0,4
Do, 18.10. 20:00 1027 + 0,9
Do, 18.10. 14:00 1026 + 0,7
Ortszeit Luftdruck NN (hPa) Tendenz (hPa in 3 Std.)
Sa, 20.10. 12:30 1029 + 1,3
Sa, 20.10. 12:20 1029 keine Meldung
Sa, 20.10. 12:10 1029 keine Meldung
Sa, 20.10. 12:00 1029 + 1,3
Sa, 20.10. 11:50 1029 keine Meldung
Sa, 20.10. 11:40 1029 keine Meldung
Sa, 20.10. 11:30 1029 + 1,2
Sa, 20.10. 11:00 1028 + 0,9
Sa, 20.10. 10:30 1028 + 0,8
Sa, 20.10. 10:00 1028 + 1,0
Sa, 20.10. 9:30 1028 + 0,8
Ortszeit Schneehöhe (cm)
Sa, 20.10. 8:00 0
Sa, 20.10. 2:00 0
Fr, 19.10. 20:00 0
Fr, 19.10. 14:00 0
Fr, 19.10. 8:00 0
Fr, 19.10. 2:00 0
Do, 18.10. 20:00 0
Do, 18.10. 14:00 0
Ortszeit Schneehöhe (cm)
Sa, 20.10. 12:30 0
Sa, 20.10. 12:20 0
Sa, 20.10. 12:10 0
Sa, 20.10. 12:00 0
Sa, 20.10. 11:50 0
Sa, 20.10. 11:40 0
Sa, 20.10. 11:30 0
Sa, 20.10. 11:00 0
Sa, 20.10. 10:30 0
Sa, 20.10. 10:00 0
Sa, 20.10. 9:30 0
Link zu dieser Seite / Seite empfehlen

Das Wetter in ...